Time;durP1;ratioP1;P1;durP2;ratioP2;P2;SDS_P1;SDS_P2;PMS_P1;PMS_P2;Temp;Humidity;BMP_temperature;BMP_pressure;BME280_temperature;BME280_humidity;BME280_pressure;Samples;Min_cycle;Max_cycle;Signal;HPM_P1;HPM_P2
2022/07/14 00:02:18;;;;;;;10.95;2.35;;;;;;;;;;5112093;28;20459;-65
2022/07/14 00:04:44;;;;;;;10.10;2.38;;;;;;;;;;5111726;28;20056;-65
2022/07/14 00:07:10;;;;;;;13.40;2.83;;;;;;;;;;5111349;28;20482;-65
2022/07/14 00:09:37;;;;;;;9.70;2.08;;;;;;;;;;5113472;28;20309;-65
2022/07/14 00:12:03;;;;;;;12.70;2.78;;;;;;;;;;5113218;28;20036;-65
2022/07/14 00:14:29;;;;;;;11.30;2.58;;;;;;;;;;5112612;28;20047;-65
2022/07/14 00:16:55;;;;;;;9.40;2.42;;;;;;;;;;5113450;28;20472;-65
2022/07/14 00:19:21;;;;;;;11.57;2.95;;;;;;;;;;5111753;28;20039;-65
2022/07/14 00:21:47;;;;;;;13.70;2.80;;;;;;;;;;5111300;28;20647;-65
2022/07/14 00:24:14;;;;;;;10.15;2.38;;;;;;;;;;5111629;28;20078;-65
2022/07/14 00:26:40;;;;;;;12.55;2.75;;;;;;;;;;5124411;27;20455;-65
2022/07/14 00:29:09;;;;;;;8.88;2.15;;;;;;;;;;5132843;27;20046;-65
2022/07/14 00:31:35;;;;;;;10.43;2.50;;;;;;;;;;5132327;27;20446;-65
2022/07/14 00:34:01;;;;;;;9.38;2.00;;;;;;;;;;5133515;27;20445;-65
2022/07/14 00:36:27;;;;;;;14.63;2.58;;;;;;;;;;5133034;27;20091;-65
2022/07/14 00:38:54;;;;;;;11.88;2.40;;;;;;;;;;5131741;27;20494;-65
2022/07/14 00:41:20;;;;;;;6.45;2.17;;;;;;;;;;5131743;27;20110;-65
2022/07/14 00:43:46;;;;;;;8.27;2.25;;;;;;;;;;5131293;27;20131;-65
2022/07/14 00:46:12;;;;;;;12.82;2.50;;;;;;;;;;5133296;27;20035;-65
2022/07/14 00:48:38;;;;;;;14.23;3.28;;;;;;;;;;5132981;27;20500;-65
2022/07/14 00:51:04;;;;;;;13.80;3.05;;;;;;;;;;5132456;27;20043;-65
2022/07/14 00:53:30;;;;;;;10.80;2.92;;;;;;;;;;5132844;27;20084;-65
2022/07/14 00:55:56;;;;;;;10.20;2.50;;;;;;;;;;5131618;27;20043;-65
2022/07/14 00:58:22;;;;;;;15.18;3.33;;;;;;;;;;5131099;27;20047;-65
2022/07/14 01:00:49;;;;;;;11.63;2.40;;;;;;;;;;5132752;27;20312;-65
2022/07/14 01:03:15;;;;;;;14.07;2.63;;;;;;;;;;5131660;27;20043;-65
2022/07/14 01:05:41;;;;;;;13.40;2.63;;;;;;;;;;5130692;27;20062;-65
2022/07/14 01:08:07;;;;;;;15.85;2.67;;;;;;;;;;5132921;27;20397;-65
2022/07/14 01:10:33;;;;;;;12.38;2.63;;;;;;;;;;5132603;27;20536;-65
2022/07/14 01:13:00;;;;;;;8.57;2.35;;;;;;;;;;5130593;27;20046;-65
2022/07/14 01:15:26;;;;;;;13.70;2.40;;;;;;;;;;5132768;27;20043;-65
2022/07/14 01:17:52;;;;;;;8.45;2.55;;;;;;;;;;5131331;27;20045;-65
2022/07/14 01:20:19;;;;;;;12.48;2.83;;;;;;;;;;5130463;27;20039;-65
2022/07/14 01:22:48;;;;;;;11.00;2.50;;;;;;;;;;5132520;27;20031;-65
2022/07/14 01:25:15;;;;;;;11.32;2.70;;;;;;;;;;5130397;27;20039;-65
2022/07/14 01:27:41;;;;;;;10.20;2.67;;;;;;;;;;5111451;28;20046;-65
2022/07/14 01:30:07;;;;;;;13.10;3.58;;;;;;;;;;5112053;27;20118;-65
2022/07/14 01:32:34;;;;;;;11.43;2.80;;;;;;;;;;5110535;28;20039;-65
2022/07/14 01:35:00;;;;;;;10.50;2.15;;;;;;;;;;5111274;28;20032;-65
2022/07/14 01:37:26;;;;;;;6.50;2.53;;;;;;;;;;5110460;28;20387;-65
2022/07/14 01:39:52;;;;;;;11.68;2.97;;;;;;;;;;5110319;28;20082;-65
2022/07/14 01:42:18;;;;;;;13.73;2.97;;;;;;;;;;5109282;28;20443;-65
2022/07/14 01:44:44;;;;;;;12.85;2.72;;;;;;;;;;5110050;28;20050;-65
2022/07/14 01:47:10;;;;;;;11.10;2.90;;;;;;;;;;5111663;28;20389;-65
2022/07/14 01:49:36;;;;;;;9.68;2.17;;;;;;;;;;5109690;28;20054;-65
2022/07/14 01:52:03;;;;;;;11.35;2.67;;;;;;;;;;5109952;28;20043;-65
2022/07/14 01:54:29;;;;;;;8.23;2.55;;;;;;;;;;5110224;28;20401;-65
2022/07/14 01:56:56;;;;;;;9.02;2.45;;;;;;;;;;5109427;28;20047;-65
2022/07/14 01:59:21;;;;;;;11.13;2.80;;;;;;;;;;5111232;28;20040;-65
2022/07/14 02:01:48;;;;;;;10.57;2.90;;;;;;;;;;5109869;28;20090;-65
2022/07/14 02:04:15;;;;;;;9.55;3.00;;;;;;;;;;5108963;28;20097;-65
2022/07/14 02:06:45;;;;;;;15.93;3.30;;;;;;;;;;5109888;28;20044;-65
2022/07/14 02:09:11;;;;;;;8.13;2.38;;;;;;;;;;5109681;28;20092;-65
2022/07/14 02:14:22;;;;;;;9.77;3.08;;;;;;;;;;5111024;28;20517;-65
2022/07/14 02:16:48;;;;;;;9.13;3.35;;;;;;;;;;5111398;28;20040;-65
2022/07/14 02:19:14;;;;;;;8.07;2.70;;;;;;;;;;5110232;28;20050;-65
2022/07/14 02:21:41;;;;;;;6.82;2.53;;;;;;;;;;5109324;28;20122;-65
2022/07/14 02:24:08;;;;;;;10.73;2.88;;;;;;;;;;5109389;28;20077;-65
2022/07/14 02:26:34;;;;;;;9.20;2.92;;;;;;;;;;5120710;27;20114;-65
2022/07/14 02:29:00;;;;;;;11.02;3.15;;;;;;;;;;5131485;27;20125;-65
2022/07/14 02:31:26;;;;;;;12.63;4.00;;;;;;;;;;5129680;27;20324;-65
2022/07/14 02:33:52;;;;;;;9.57;2.70;;;;;;;;;;5129244;27;20039;-65
2022/07/14 02:36:18;;;;;;;9.65;2.72;;;;;;;;;;5129819;27;20088;-65
2022/07/14 02:38:44;;;;;;;8.65;3.00;;;;;;;;;;5129692;27;20127;-65
2022/07/14 02:41:10;;;;;;;7.65;2.60;;;;;;;;;;5130438;27;20488;-65
2022/07/14 02:43:37;;;;;;;10.05;3.10;;;;;;;;;;5131023;27;20046;-65
2022/07/14 02:46:03;;;;;;;9.70;3.17;;;;;;;;;;5131232;27;20121;-65
2022/07/14 02:48:29;;;;;;;10.95;3.10;;;;;;;;;;5130645;27;20122;-65
2022/07/14 02:51:02;;;;;;;8.95;3.08;;;;;;;;;;5131131;27;20561;-65
2022/07/14 02:53:28;;;;;;;8.10;2.72;;;;;;;;;;5131036;27;20046;-65
2022/07/14 02:55:55;;;;;;;6.63;2.72;;;;;;;;;;5134622;27;20091;-65
2022/07/14 02:58:21;;;;;;;11.32;3.15;;;;;;;;;;5134041;27;20092;-65
2022/07/14 03:00:47;;;;;;;8.70;3.10;;;;;;;;;;5135051;27;20119;-65
2022/07/14 03:03:13;;;;;;;9.05;2.67;;;;;;;;;;5133077;27;20130;-65
2022/07/14 03:05:39;;;;;;;8.15;3.10;;;;;;;;;;5134947;27;20078;-65
2022/07/14 03:08:05;;;;;;;10.13;2.90;;;;;;;;;;5135376;27;20066;-65
2022/07/14 03:10:31;;;;;;;8.32;3.58;;;;;;;;;;5133110;27;20078;-65
2022/07/14 03:12:57;;;;;;;9.07;3.10;;;;;;;;;;5135074;27;20138;-65
2022/07/14 03:15:23;;;;;;;9.00;3.83;;;;;;;;;;5133494;27;20596;-65
2022/07/14 03:17:49;;;;;;;10.43;2.88;;;;;;;;;;5134246;27;20039;-65
2022/07/14 03:20:16;;;;;;;9.82;3.22;;;;;;;;;;5133453;27;20446;-65
2022/07/14 03:22:42;;;;;;;13.20;3.17;;;;;;;;;;5133346;27;20051;-65
2022/07/14 03:25:09;;;;;;;8.30;3.00;;;;;;;;;;5133019;27;20324;-65
2022/07/14 03:27:38;;;;;;;6.70;3.17;;;;;;;;;;5112633;28;20044;-65
2022/07/14 03:30:08;;;;;;;8.25;3.13;;;;;;;;;;5114179;28;20039;-65
2022/07/14 03:32:34;;;;;;;5.82;2.72;;;;;;;;;;5111825;28;20089;-65
2022/07/14 03:35:03;;;;;;;8.07;2.80;;;;;;;;;;5112765;28;20533;-65
2022/07/14 03:37:29;;;;;;;9.52;3.10;;;;;;;;;;5114421;28;20252;-65
2022/07/14 03:39:55;;;;;;;8.95;3.10;;;;;;;;;;5113456;28;20507;-65
2022/07/14 03:42:22;;;;;;;8.60;3.08;;;;;;;;;;5113667;28;20100;-65
2022/07/14 03:44:48;;;;;;;9.85;3.58;;;;;;;;;;5114073;28;20039;-64
2022/07/14 03:47:15;;;;;;;8.80;3.50;;;;;;;;;;5112123;28;20535;-64
2022/07/14 03:49:41;;;;;;;9.90;3.20;;;;;;;;;;5112686;28;20044;-64
2022/07/14 03:52:07;;;;;;;5.05;3.10;;;;;;;;;;5113744;28;20042;-64
2022/07/14 03:54:33;;;;;;;7.47;2.80;;;;;;;;;;5112079;28;20648;-64
2022/07/14 03:56:59;;;;;;;8.80;3.00;;;;;;;;;;5113488;28;20100;-64
2022/07/14 03:59:25;;;;;;;7.47;3.00;;;;;;;;;;5112455;28;20040;-64
2022/07/14 04:01:51;;;;;;;7.28;2.92;;;;;;;;;;5112922;28;20031;-64
2022/07/14 04:04:17;;;;;;;9.88;3.05;;;;;;;;;;5113489;28;20075;-64
2022/07/14 04:06:43;;;;;;;10.65;3.42;;;;;;;;;;5113278;28;20058;-64
2022/07/14 04:09:09;;;;;;;6.00;2.67;;;;;;;;;;5111438;28;20051;-64
2022/07/14 04:11:35;;;;;;;5.80;3.22;;;;;;;;;;5112066;28;20043;-64
2022/07/14 04:14:01;;;;;;;8.43;3.28;;;;;;;;;;5113483;28;20371;-64
2022/07/14 04:16:27;;;;;;;8.50;3.17;;;;;;;;;;5112692;28;20414;-64
2022/07/14 04:18:53;;;;;;;9.57;3.30;;;;;;;;;;5111640;28;20035;-64
2022/07/14 04:21:19;;;;;;;9.50;3.22;;;;;;;;;;5113175;28;20046;-64
2022/07/14 04:23:45;;;;;;;7.07;3.20;;;;;;;;;;5111639;28;20050;-64
2022/07/14 04:26:11;;;;;;;6.75;3.00;;;;;;;;;;5121296;27;20043;-64
2022/07/14 04:28:37;;;;;;;9.23;3.40;;;;;;;;;;5133807;27;20039;-64
2022/07/14 04:31:03;;;;;;;13.63;4.00;;;;;;;;;;5133461;27;20050;-64
2022/07/14 04:33:29;;;;;;;12.35;3.47;;;;;;;;;;5132885;27;20457;-64
2022/07/14 04:35:55;;;;;;;11.15;3.78;;;;;;;;;;5132318;27;20078;-64
2022/07/14 04:38:22;;;;;;;8.32;3.25;;;;;;;;;;5133596;27;20035;-65
2022/07/14 04:40:49;;;;;;;8.35;2.95;;;;;;;;;;5132863;27;20039;-64
2022/07/14 04:43:16;;;;;;;7.65;3.50;;;;;;;;;;5134607;27;20607;-64
2022/07/14 04:45:42;;;;;;;11.10;3.38;;;;;;;;;;5133124;27;20058;-64
2022/07/14 04:48:08;;;;;;;9.50;4.13;;;;;;;;;;5134021;27;20383;-64
2022/07/14 04:53:19;;;;;;;10.35;3.60;;;;;;;;;;5134563;27;20043;-64
2022/07/14 04:55:45;;;;;;;17.33;4.07;;;;;;;;;;5132432;27;20038;-64
2022/07/14 04:58:11;;;;;;;13.63;4.45;;;;;;;;;;5134442;27;20035;-64
2022/07/14 05:00:37;;;;;;;12.82;3.92;;;;;;;;;;5133926;27;20035;-64
2022/07/14 05:03:03;;;;;;;12.40;3.92;;;;;;;;;;5132126;27;20121;-64
2022/07/14 05:05:29;;;;;;;13.10;3.42;;;;;;;;;;5134035;27;20077;-64
2022/07/14 05:07:55;;;;;;;6.85;3.55;;;;;;;;;;5132667;27;20039;-64
2022/07/14 05:10:21;;;;;;;8.45;3.22;;;;;;;;;;5133581;27;20042;-64
2022/07/14 05:12:47;;;;;;;7.47;3.35;;;;;;;;;;5122823;27;20043;-65
2022/07/14 05:15:13;;;;;;;8.57;3.45;;;;;;;;;;5132936;27;20066;-65
2022/07/14 05:17:39;;;;;;;9.18;3.30;;;;;;;;;;5130982;27;20065;-65
2022/07/14 05:20:06;;;;;;;10.75;3.63;;;;;;;;;;5132144;27;20035;-65
2022/07/14 05:22:38;;;;;;;9.35;3.10;;;;;;;;;;5132132;27;20050;-65
2022/07/14 05:25:08;;;;;;;12.55;3.75;;;;;;;;;;5131428;27;20075;-65
2022/07/14 05:27:34;;;;;;;8.68;3.35;;;;;;;;;;5110433;28;20043;-65
2022/07/14 05:30:00;;;;;;;11.23;3.30;;;;;;;;;;5110054;28;20035;-65
2022/07/14 05:32:26;;;;;;;15.27;3.53;;;;;;;;;;5110643;28;20131;-65
2022/07/14 05:34:52;;;;;;;14.80;3.65;;;;;;;;;;5111340;28;20198;-65
2022/07/14 05:37:18;;;;;;;16.98;4.15;;;;;;;;;;5111158;28;20367;-65
2022/07/14 05:39:44;;;;;;;12.30;3.00;;;;;;;;;;5109540;28;20126;-65
2022/07/14 05:42:11;;;;;;;8.73;3.63;;;;;;;;;;5110010;28;20043;-65
2022/07/14 05:44:37;;;;;;;8.73;3.05;;;;;;;;;;5109870;28;20112;-65
2022/07/14 05:47:03;;;;;;;9.90;2.83;;;;;;;;;;5108817;28;20122;-65
2022/07/14 05:49:29;;;;;;;6.13;2.83;;;;;;;;;;5111362;28;20115;-65
2022/07/14 05:51:55;;;;;;;10.48;2.70;;;;;;;;;;5117590;27;20031;-65
2022/07/14 05:54:21;;;;;;;7.70;3.55;;;;;;;;;;5130940;27;20071;-65
2022/07/14 05:56:47;;;;;;;15.00;2.90;;;;;;;;;;5129990;27;20083;-65
2022/07/14 05:59:13;;;;;;;10.55;2.50;;;;;;;;;;5130238;27;20039;-65
2022/07/14 06:01:39;;;;;;;8.65;2.17;;;;;;;;;;5129512;27;20469;-65
2022/07/14 06:04:05;;;;;;;14.85;2.53;;;;;;;;;;5130355;27;20043;-64
2022/07/14 06:06:31;;;;;;;6.90;2.42;;;;;;;;;;5132549;27;20050;-66
2022/07/14 06:08:57;;;;;;;6.80;2.20;;;;;;;;;;5148266;27;20332;-66
2022/07/14 06:11:23;;;;;;;11.40;2.40;;;;;;;;;;5151931;27;20057;-65
2022/07/14 06:13:49;;;;;;;6.63;1.60;;;;;;;;;;5151774;27;20397;-64
2022/07/14 06:16:15;;;;;;;5.78;2.08;;;;;;;;;;5141665;27;20034;-64
2022/07/14 06:18:42;;;;;;;10.43;2.15;;;;;;;;;;5142749;27;20031;-64
2022/07/14 06:21:08;;;;;;;8.55;1.85;;;;;;;;;;5149035;27;20038;-63
2022/07/14 06:23:35;;;;;;;6.13;1.73;;;;;;;;;;5145988;27;20046;-65
2022/07/14 06:26:06;;;;;;;13.15;2.40;;;;;;;;;;5127265;27;20038;-64
2022/07/14 06:28:32;;;;;;;8.88;2.15;;;;;;;;;;5152228;27;20051;-64
2022/07/14 06:30:58;;;;;;;8.20;2.03;;;;;;;;;;5151628;27;20035;-65
2022/07/14 06:33:24;;;;;;;10.35;1.70;;;;;;;;;;5151853;27;20070;-65
2022/07/14 06:35:51;;;;;;;8.65;2.70;;;;;;;;;;5152314;27;20042;-64
2022/07/14 06:38:17;;;;;;;9.70;1.70;;;;;;;;;;5151914;27;20031;-64
2022/07/14 06:40:43;;;;;;;7.30;1.63;;;;;;;;;;5152644;27;20095;-64
2022/07/14 06:43:10;;;;;;;10.02;1.33;;;;;;;;;;5133842;27;20048;-66
2022/07/14 06:45:36;;;;;;;6.53;1.45;;;;;;;;;;5122798;27;20071;-65
2022/07/14 06:48:02;;;;;;;9.98;1.80;;;;;;;;;;5123513;27;20043;-64
2022/07/14 06:50:28;;;;;;;4.72;1.30;;;;;;;;;;5119264;27;20578;-65
2022/07/14 06:52:54;;;;;;;6.22;1.40;;;;;;;;;;5123126;27;20046;-64
2022/07/14 06:55:20;;;;;;;7.07;1.77;;;;;;;;;;5128589;27;20059;-63
2022/07/14 06:57:46;;;;;;;7.97;1.58;;;;;;;;;;5120322;27;20548;-64
2022/07/14 07:00:12;;;;;;;9.18;1.60;;;;;;;;;;5118102;27;20036;-65
2022/07/14 07:02:40;;;;;;;7.85;1.45;;;;;;;;;;5126148;27;20070;-65
2022/07/14 07:07:51;;;;;;;5.65;1.27;;;;;;;;;;5121424;27;20043;-65
2022/07/14 07:10:18;;;;;;;6.88;1.20;;;;;;;;;;5121633;27;20530;-65
2022/07/14 07:12:44;;;;;;;8.32;0.93;;;;;;;;;;5126850;27;20560;-63
2022/07/14 07:15:10;;;;;;;3.85;0.80;;;;;;;;;;5135524;27;20047;-65
2022/07/14 07:17:36;;;;;;;5.50;0.95;;;;;;;;;;5147163;27;20286;-65
2022/07/14 07:20:02;;;;;;;7.30;1.40;;;;;;;;;;5150086;27;20045;-65
2022/07/14 07:22:28;;;;;;;5.47;1.10;;;;;;;;;;5128919;27;20074;-64
2022/07/14 07:24:54;;;;;;;6.10;1.08;;;;;;;;;;5144634;27;20043;-65
2022/07/14 07:27:20;;;;;;;6.05;1.10;;;;;;;;;;5142966;27;20039;-65
2022/07/14 07:29:46;;;;;;;5.10;1.10;;;;;;;;;;5150014;27;20430;-65
2022/07/14 07:32:12;;;;;;;5.70;1.17;;;;;;;;;;5131572;27;20050;-64
2022/07/14 07:34:38;;;;;;;6.18;0.90;;;;;;;;;;5138047;27;20031;-64
2022/07/14 07:37:05;;;;;;;7.00;1.25;;;;;;;;;;5132545;27;20129;-63
2022/07/14 07:39:31;;;;;;;7.93;1.20;;;;;;;;;;5145605;27;20096;-64
2022/07/14 07:42:00;;;;;;;5.68;0.90;;;;;;;;;;5133357;27;20043;-64
2022/07/14 07:44:27;;;;;;;8.20;1.38;;;;;;;;;;5132996;27;20058;-65
2022/07/14 07:46:53;;;;;;;11.20;1.20;;;;;;;;;;5144409;27;20054;-66
2022/07/14 07:49:19;;;;;;;7.65;1.25;;;;;;;;;;5144259;27;20050;-65
2022/07/14 07:51:45;;;;;;;13.70;1.38;;;;;;;;;;5132257;27;20035;-63
2022/07/14 07:54:11;;;;;;;5.78;0.98;;;;;;;;;;5139578;27;20148;-63
2022/07/14 07:56:37;;;;;;;5.18;0.90;;;;;;;;;;5146860;27;20038;-64
2022/07/14 07:59:03;;;;;;;6.63;1.00;;;;;;;;;;5133249;27;20119;-64
2022/07/14 08:01:29;;;;;;;7.38;1.00;;;;;;;;;;5141812;27;20799;-67
2022/07/14 08:03:55;;;;;;;6.25;0.90;;;;;;;;;;5131124;27;20050;-65
2022/07/14 08:06:21;;;;;;;5.45;1.20;;;;;;;;;;5143019;27;20038;-65
2022/07/14 08:08:47;;;;;;;4.10;0.80;;;;;;;;;;5133601;27;20038;-65
2022/07/14 08:11:13;;;;;;;3.95;0.82;;;;;;;;;;5126307;27;20079;-65
2022/07/14 08:13:39;;;;;;;5.15;1.02;;;;;;;;;;5132730;27;20043;-66
2022/07/14 08:16:05;;;;;;;5.97;1.35;;;;;;;;;;5136447;27;20039;-65
2022/07/14 08:18:32;;;;;;;2.63;0.50;;;;;;;;;;5140751;27;20043;-64
2022/07/14 08:20:58;;;;;;;7.47;0.95;;;;;;;;;;5135193;27;20160;-64
2022/07/14 08:23:26;;;;;;;4.75;0.73;;;;;;;;;;5144604;27;20043;-64
2022/07/14 08:25:52;;;;;;;4.72;0.77;;;;;;;;;;5130498;27;20119;-64
2022/07/14 08:28:19;;;;;;;3.60;0.70;;;;;;;;;;5128130;27;20080;-68
2022/07/14 08:30:45;;;;;;;5.50;0.90;;;;;;;;;;5132046;27;20513;-63
2022/07/14 08:33:11;;;;;;;6.70;0.93;;;;;;;;;;5131565;27;20503;-63
2022/07/14 08:35:37;;;;;;;5.18;0.98;;;;;;;;;;5124365;27;20047;-65
2022/07/14 08:38:03;;;;;;;3.95;0.82;;;;;;;;;;5138156;27;20555;-64
2022/07/14 08:40:29;;;;;;;1.98;0.70;;;;;;;;;;5128577;27;20095;-64
2022/07/14 08:42:56;;;;;;;2.75;0.40;;;;;;;;;;5139453;27;20469;-64
2022/07/14 08:45:24;;;;;;;4.50;0.80;;;;;;;;;;5144496;27;20086;-64
2022/07/14 08:47:50;;;;;;;2.45;0.80;;;;;;;;;;5135195;27;20053;-64
2022/07/14 08:50:17;;;;;;;4.10;0.70;;;;;;;;;;5148949;27;20049;-63
2022/07/14 08:52:44;;;;;;;2.65;0.50;;;;;;;;;;5133637;27;20053;-63
2022/07/14 08:55:11;;;;;;;4.35;0.60;;;;;;;;;;5143775;27;20042;-63
2022/07/14 08:57:37;;;;;;;2.28;0.60;;;;;;;;;;5152353;27;20153;-63
2022/07/14 09:00:09;;;;;;;1.42;0.52;;;;;;;;;;5139987;27;20670;-64
2022/07/14 09:02:36;;;;;;;5.25;0.70;;;;;;;;;;5143235;27;20054;-64
2022/07/14 09:05:02;;;;;;;5.32;0.73;;;;;;;;;;5140388;27;20488;-64
2022/07/14 09:07:31;;;;;;;6.57;0.90;;;;;;;;;;5125103;27;20416;-63
2022/07/14 09:10:19;;;;;;;5.55;0.60;;;;;;;;;;5126030;27;20059;-63
2022/07/14 09:12:45;;;;;;;2.63;0.40;;;;;;;;;;5125923;27;20043;-62
2022/07/14 09:18:00;;;;;;;1.88;0.40;;;;;;;;;;5145240;27;20052;-63
2022/07/14 09:20:31;;;;;;;3.45;0.60;;;;;;;;;;5127091;27;20046;-65
2022/07/14 09:22:58;;;;;;;2.80;0.68;;;;;;;;;;5150645;27;20061;-63
2022/07/14 09:25:24;;;;;;;3.78;0.47;;;;;;;;;;5120969;27;20375;-63
2022/07/14 09:27:51;;;;;;;1.92;0.50;;;;;;;;;;5127641;27;20039;-63
2022/07/14 09:30:17;;;;;;;5.40;0.70;;;;;;;;;;5134173;27;20047;-63
2022/07/14 09:32:44;;;;;;;6.88;1.02;;;;;;;;;;5135109;27;20051;-63
2022/07/14 09:35:11;;;;;;;5.28;0.57;;;;;;;;;;5123087;27;20031;-64
2022/07/14 09:37:37;;;;;;;4.20;0.73;;;;;;;;;;5122741;27;20046;-63
2022/07/14 09:40:03;;;;;;;2.92;0.70;;;;;;;;;;5143213;27;20655;-64
2022/07/14 09:42:50;;;;;;;2.40;0.85;;;;;;;;;;5132687;27;20102;-63
2022/07/14 09:45:16;;;;;;;3.17;0.60;;;;;;;;;;5133115;27;20048;-63
2022/07/14 09:48:11;;;;;;;4.15;0.70;;;;;;;;;;5128845;27;20369;-64
2022/07/14 09:50:37;;;;;;;5.18;0.57;;;;;;;;;;5108315;27;20043;-64
2022/07/14 09:53:14;;;;;;;3.67;0.55;;;;;;;;;;5139940;27;20038;-63
2022/07/14 09:55:46;;;;;;;3.13;0.50;;;;;;;;;;5122103;27;20023;-63
2022/07/14 09:58:12;;;;;;;5.82;0.60;;;;;;;;;;5127279;27;20058;-64
2022/07/14 10:00:41;;;;;;;4.95;0.60;;;;;;;;;;5129736;27;20037;-65
2022/07/14 10:03:07;;;;;;;4.82;0.77;;;;;;;;;;5140820;27;20047;-64
2022/07/14 10:05:34;;;;;;;1.85;0.65;;;;;;;;;;5133590;27;20110;-63
2022/07/14 10:08:02;;;;;;;5.57;0.80;;;;;;;;;;5123435;27;20702;-64
2022/07/14 10:10:28;;;;;;;1.33;0.60;;;;;;;;;;5129944;27;20062;-63
2022/07/14 10:12:55;;;;;;;2.45;0.55;;;;;;;;;;5140219;27;20134;-63
2022/07/14 10:15:23;;;;;;;1.40;0.50;;;;;;;;;;5131327;27;20031;-63
2022/07/14 10:17:49;;;;;;;3.13;0.75;;;;;;;;;;5144642;27;20038;-65
2022/07/14 10:20:19;;;;;;;1.10;0.50;;;;;;;;;;5120002;27;20546;-63
2022/07/14 10:22:46;;;;;;;3.13;0.60;;;;;;;;;;5139700;27;20043;-63
2022/07/14 10:25:12;;;;;;;2.63;0.50;;;;;;;;;;5139860;27;20095;-62
2022/07/14 10:27:40;;;;;;;2.22;0.50;;;;;;;;;;5141352;27;20035;-63
2022/07/14 10:30:07;;;;;;;4.88;0.70;;;;;;;;;;5131933;27;20054;-64
2022/07/14 10:32:35;;;;;;;2.33;0.50;;;;;;;;;;5145314;27;20042;-64
2022/07/14 10:35:20;;;;;;;7.05;0.57;;;;;;;;;;5141708;27;20042;-64
2022/07/14 10:38:01;;;;;;;2.95;1.05;;;;;;;;;;5140506;27;20086;-65
2022/07/14 10:40:36;;;;;;;3.55;0.52;;;;;;;;;;5142482;27;20035;-64
2022/07/14 10:43:24;;;;;;;1.85;0.50;;;;;;;;;;5135983;27;20042;-64
2022/07/14 10:45:51;;;;;;;2.90;0.43;;;;;;;;;;5142791;27;20370;-64
2022/07/14 10:48:37;;;;;;;2.83;0.63;;;;;;;;;;5140879;27;20507;-64
2022/07/14 10:51:23;;;;;;;4.53;0.60;;;;;;;;;;5135525;27;20043;-64
2022/07/14 10:54:01;;;;;;;2.30;0.43;;;;;;;;;;5131473;27;20078;-64
2022/07/14 10:56:28;;;;;;;1.85;0.50;;;;;;;;;;5135327;27;20809;-64
2022/07/14 10:59:12;;;;;;;1.52;0.60;;;;;;;;;;5141623;27;20031;-64
2022/07/14 11:01:58;;;;;;;2.50;0.60;;;;;;;;;;5124652;27;20042;-63
2022/07/14 11:04:43;;;;;;;2.90;0.60;;;;;;;;;;5123897;27;20047;-64
2022/07/14 11:07:29;;;;;;;1.98;0.70;;;;;;;;;;5126572;27;20039;-64
2022/07/14 11:09:56;;;;;;;4.85;0.60;;;;;;;;;;5139807;27;20047;-64
2022/07/14 11:12:22;;;;;;;4.53;0.60;;;;;;;;;;5140029;27;20423;-64
2022/07/14 11:14:48;;;;;;;1.70;0.60;;;;;;;;;;5133655;27;20703;-64
2022/07/14 11:17:33;;;;;;;1.33;0.50;;;;;;;;;;5146094;27;20039;-64
2022/07/14 11:19:59;;;;;;;2.65;0.40;;;;;;;;;;5128636;27;20039;-64
2022/07/14 11:22:25;;;;;;;4.47;0.75;;;;;;;;;;5131618;27;20036;-65
2022/07/14 11:24:54;;;;;;;4.03;0.60;;;;;;;;;;5139318;27;20090;-64
2022/07/14 11:27:28;;;;;;;1.45;0.52;;;;;;;;;;5141387;27;20042;-63
2022/07/14 11:29:57;;;;;;;2.42;0.60;;;;;;;;;;5126801;27;20039;-62
2022/07/14 11:32:31;;;;;;;2.30;0.47;;;;;;;;;;5137481;27;20050;-64
2022/07/14 11:38:01;;;;;;;2.05;0.50;;;;;;;;;;5133704;27;20111;-65
2022/07/14 11:40:43;;;;;;;3.17;0.50;;;;;;;;;;5126568;27;20043;-65
2022/07/14 11:43:09;;;;;;;;;;;;;;;;;;5147222;27;20126;-64
2022/07/14 11:45:56;;;;;;;2.33;0.88;;;;;;;;;;5137055;27;20010;-65
2022/07/14 11:48:22;;;;;;;2.33;0.52;;;;;;;;;;5134964;27;20355;-64
2022/07/14 11:50:48;;;;;;;2.42;0.60;;;;;;;;;;5134374;27;20085;-64
2022/07/14 11:53:16;;;;;;;6.15;0.90;;;;;;;;;;5139555;27;20577;-64
2022/07/14 11:55:42;;;;;;;2.70;0.60;;;;;;;;;;5145636;27;20045;-63
2022/07/14 11:58:08;;;;;;;2.72;0.57;;;;;;;;;;5145199;27;20041;-62
2022/07/14 12:00:35;;;;;;;4.22;0.80;;;;;;;;;;5145263;27;20046;-65
2022/07/14 12:03:03;;;;;;;3.17;0.68;;;;;;;;;;5131505;27;20145;-64
2022/07/14 12:05:31;;;;;;;3.70;0.60;;;;;;;;;;5142168;27;20089;-64
2022/07/14 12:08:01;;;;;;;8.68;0.82;;;;;;;;;;5150463;27;20070;-65
2022/07/14 12:10:41;;;;;;;2.95;0.70;;;;;;;;;;5153682;27;20050;-64
2022/07/14 12:13:07;;;;;;;5.35;0.50;;;;;;;;;;5146154;27;20039;-63
2022/07/14 12:15:33;;;;;;;1.38;0.40;;;;;;;;;;5154342;27;20043;-63
2022/07/14 12:18:01;;;;;;;2.50;0.70;;;;;;;;;;5153424;27;20057;-64
2022/07/14 12:20:35;;;;;;;3.72;1.00;;;;;;;;;;5126408;27;20071;-64
2022/07/14 12:23:01;;;;;;;2.15;0.90;;;;;;;;;;5131235;27;20482;-64
2022/07/14 12:25:32;;;;;;;3.00;0.70;;;;;;;;;;5137962;27;20099;-65
2022/07/14 12:28:06;;;;;;;1.40;0.68;;;;;;;;;;5136268;27;20104;-67
2022/07/14 12:30:44;;;;;;;3.40;0.60;;;;;;;;;;5154071;27;20047;-67
2022/07/14 12:33:11;;;;;;;4.25;0.85;;;;;;;;;;5141527;27;20145;-66
2022/07/14 12:35:37;;;;;;;1.90;0.80;;;;;;;;;;5132614;27;20042;-63
2022/07/14 12:38:03;;;;;;;4.85;0.98;;;;;;;;;;5126514;27;20035;-66
2022/07/14 12:40:29;;;;;;;4.00;0.80;;;;;;;;;;5126240;27;20069;-65
2022/07/14 12:42:55;;;;;;;4.15;0.90;;;;;;;;;;5139718;27;20047;-63
2022/07/14 12:45:21;;;;;;;2.90;0.70;;;;;;;;;;5149920;27;20042;-64
2022/07/14 12:47:49;;;;;;;2.15;0.70;;;;;;;;;;5127291;27;20043;-63
2022/07/14 12:50:18;;;;;;;3.13;0.68;;;;;;;;;;5140246;27;20039;-63
2022/07/14 12:52:52;;;;;;;2.90;0.80;;;;;;;;;;5142566;27;20066;-64
2022/07/14 12:55:48;;;;;;;3.95;0.80;;;;;;;;;;5119989;27;20062;-65
2022/07/14 12:58:14;;;;;;;6.85;1.00;;;;;;;;;;5143089;27;20034;-62
2022/07/14 13:00:44;;;;;;;4.60;0.80;;;;;;;;;;5120545;27;20156;-64
2022/07/14 13:03:12;;;;;;;3.13;0.60;;;;;;;;;;5130961;27;20085;-65
2022/07/14 13:05:38;;;;;;;4.88;0.80;;;;;;;;;;5134020;27;20046;-64
2022/07/14 13:08:28;;;;;;;3.78;0.93;;;;;;;;;;5126708;27;20042;-65
2022/07/14 13:10:55;;;;;;;2.72;0.70;;;;;;;;;;5128358;27;20050;-63
2022/07/14 13:13:31;;;;;;;3.20;0.80;;;;;;;;;;5137416;27;20380;-64
2022/07/14 13:16:27;;;;;;;4.00;0.70;;;;;;;;;;5138646;27;20027;-66
2022/07/14 13:19:02;;;;;;;3.83;0.60;;;;;;;;;;5138772;27;20539;-68
2022/07/14 13:21:47;;;;;;;3.15;0.50;;;;;;;;;;5139418;27;20065;-66
2022/07/14 13:24:21;;;;;;;3.70;0.80;;;;;;;;;;5152956;27;20075;-65
2022/07/14 13:27:02;;;;;;;1.75;0.55;;;;;;;;;;5137969;27;20047;-65
2022/07/14 13:29:29;;;;;;;5.80;0.95;;;;;;;;;;5129082;27;20051;-66
2022/07/14 13:31:56;;;;;;;4.63;0.63;;;;;;;;;;5152279;27;20118;-64
2022/07/14 13:34:22;;;;;;;4.70;0.70;;;;;;;;;;5153171;27;20038;-65
2022/07/14 13:36:48;;;;;;;4.57;0.65;;;;;;;;;;5151218;27;20080;-65
2022/07/14 13:39:14;;;;;;;3.63;0.70;;;;;;;;;;5142454;27;20148;-65
2022/07/14 13:41:41;;;;;;;3.28;0.70;;;;;;;;;;5142379;27;20122;-64
2022/07/14 13:44:08;;;;;;;1.55;0.65;;;;;;;;;;5137007;27;20129;-65
2022/07/14 13:46:35;;;;;;;2.20;0.52;;;;;;;;;;5151946;27;20046;-65
2022/07/14 13:49:01;;;;;;;2.53;0.80;;;;;;;;;;5143392;27;20057;-66
2022/07/14 13:54:12;;;;;;;3.00;0.75;;;;;;;;;;5143942;27;20047;-65
2022/07/14 13:56:40;;;;;;;2.88;0.50;;;;;;;;;;5147736;27;20035;-65
2022/07/14 13:59:08;;;;;;;2.22;0.65;;;;;;;;;;5149640;27;20490;-66
2022/07/14 14:01:35;;;;;;;2.55;0.45;;;;;;;;;;5146421;27;20042;-65
2022/07/14 14:04:02;;;;;;;1.42;0.50;;;;;;;;;;5148862;27;20404;-64
2022/07/14 14:06:28;;;;;;;3.95;0.60;;;;;;;;;;5138492;27;20096;-65
2022/07/14 14:08:54;;;;;;;3.53;0.60;;;;;;;;;;5144981;27;20428;-67
2022/07/14 14:11:20;;;;;;;3.70;0.68;;;;;;;;;;5146220;27;20078;-66
2022/07/14 14:13:46;;;;;;;4.15;0.60;;;;;;;;;;5144318;27;20074;-66
2022/07/14 14:16:13;;;;;;;2.58;0.70;;;;;;;;;;5146749;27;20872;-66
2022/07/14 14:18:39;;;;;;;3.33;0.57;;;;;;;;;;5143641;27;20035;-66
2022/07/14 14:21:07;;;;;;;2.15;0.65;;;;;;;;;;5147426;27;20061;-66
2022/07/14 14:23:33;;;;;;;4.25;0.70;;;;;;;;;;5148100;27;20047;-65
2022/07/14 14:26:00;;;;;;;4.38;0.98;;;;;;;;;;5144481;27;20550;-66
2022/07/14 14:28:26;;;;;;;2.78;0.60;;;;;;;;;;5145261;27;20035;-64
2022/07/14 14:30:52;;;;;;;1.90;0.68;;;;;;;;;;5146190;27;20037;-64
2022/07/14 14:33:19;;;;;;;7.63;0.80;;;;;;;;;;5149946;27;20091;-65
2022/07/14 14:35:46;;;;;;;4.72;0.70;;;;;;;;;;5136396;27;20114;-63
2022/07/14 14:38:12;;;;;;;3.30;0.70;;;;;;;;;;5138069;27;20038;-63
2022/07/14 14:40:39;;;;;;;2.42;0.65;;;;;;;;;;5137824;27;20544;-64
2022/07/14 14:43:05;;;;;;;7.63;0.65;;;;;;;;;;5146534;27;20082;-63
2022/07/14 14:45:32;;;;;;;7.65;0.68;;;;;;;;;;5137113;27;20091;-65
2022/07/14 14:47:59;;;;;;;1.55;0.40;;;;;;;;;;5140876;27;20047;-66
2022/07/14 14:50:25;;;;;;;5.18;0.60;;;;;;;;;;5143090;27;20484;-65
2022/07/14 14:52:51;;;;;;;2.08;0.57;;;;;;;;;;5149456;27;20046;-65
2022/07/14 14:55:18;;;;;;;4.68;0.90;;;;;;;;;;5146846;27;20038;-64
2022/07/14 14:57:45;;;;;;;1.30;0.50;;;;;;;;;;5139866;27;20791;-67
2022/07/14 15:00:11;;;;;;;3.30;0.80;;;;;;;;;;5139388;27;20066;-67
2022/07/14 15:02:37;;;;;;;6.22;0.52;;;;;;;;;;5135357;27;20069;-67